• Join FlightAware (Why Join?)
  • Login
  • US Flag 
06:49PM EDT


 

Airport Tracker/Info


-or-


 

Live Flight TrackerFlight Track Log ✈ N27XP ✈ 27-Aug-2013 ✈ KSOP - KBED

Flight Track Log - Related Links

Times and Time Zones

All times are in EDT time to prevent confusion due to time zone crossing. See the N27XP flight status page for this flight to view local times or setup timezone preferences in your user account.

Time Position Orientation Groundspeed Altitude Reporting Facility
EDT Latitude Longitude Course Direction KTS MPH feet Rate Location/Type
04:49PM 35.2436 -79.4781 20° North 170 196 5,400  Level Washington Center
04:50PM 35.3056 -79.4989 345° North 186 214 7,700 2,520 Climbing Washington Center
04:51PM 35.3864 -79.5181 349° North 248 285 10,600 2,220 Climbing Washington Center
04:52PM 35.4581 -79.4961 14° North 275 316 12,100 1,740 Climbing Washington Center
04:53PM 35.5489 -79.4597 18° North 305 351 14,100 1,860 Climbing Washington Center
04:54PM 35.5833 -79.4333 20° North  Level FlightAware Approximate
04:54PM 35.6378 -79.4206 20° North 324 373 16,000  Level Washington Center
04:55PM 35.7269 -79.3761 22° Northeast 335 386 17,000 1,380 Climbing Washington Center
04:56PM 35.8075 -79.3392 20° North 335 386 18,800 1,680 Climbing Washington Center
04:57PM 35.8925 -79.2867 27° Northeast 335 386 20,500 1,620 Climbing Washington Center
04:58PM 35.9736 -79.2264 31° Northeast 340 391 22,200 1,680 Climbing Washington Center
04:59PM 36.0428 -79.1497 42° Northeast 340 391 24,000 1,320 Climbing Washington Center
05:00PM 36.1164 -79.0606 44° Northeast 334 384 24,900 1,020 Climbing Washington Center
05:01PM 36.1875 -78.9736 45° Northeast 334 384 26,100 900 Climbing Washington Center
05:02PM 36.2611 -78.8842 44° Northeast 352 405 26,700 420 Climbing Washington Center
05:03PM 36.3386 -78.7894 45° Northeast 366 421 27,000 120 Climbing Washington Center
05:04PM 36.4186 -78.6894 45° Northeast 386 444 27,000  Level Washington Center
05:05PM 36.5025 -78.5842 45° Northeast 407 468 27,000  Level Washington Center
05:06PM 36.5886 -78.4764 45° Northeast 420 483 27,000 -120 Level Washington Center
05:07PM 36.6767 -78.3708 44° Northeast 426 490 26,800 -540 Descending Washington Center
05:08PM 36.7628 -78.2597 46° Northeast 426 490 26,000 -720 Descending Washington Center
05:09PM 36.8419 -78.1611 45° Northeast 436 502 25,400 -540 Descending Washington Center
05:10PM 36.9339 -78.0603 41° Northeast 436 502 25,000 -240 Descending Washington Center
05:11PM 37.0275 -77.9644 39° Northeast 436 502 25,000  Level Washington Center
05:12PM 37.1233 -77.8711 38° Northeast 431 496 25,000  Level Washington Center
05:13PM 37.2169 -77.7747 39° Northeast 431 496 25,000  Level Washington Center
05:14PM 37.3103 -77.6808 39° Northeast 431 496 25,000  Level Washington Center
05:15PM 37.4081 -77.5814 39° Northeast 431 496 25,000  Level Washington Center
05:16PM 37.5014 -77.4869 39° Northeast 431 496 25,000  Level Washington Center
05:17PM 37.5756 -77.4103 39° Northeast 431 496 25,000  Level Washington Center
05:18PM 37.6897 -77.2950 39° Northeast 431 496 25,000  Level Washington Center
05:19PM 37.7869 -77.2053 36° Northeast 426 490 25,000  Level Washington Center
05:20PM 37.8819 -77.1150 37° Northeast 426 490 25,000  Level Washington Center
05:21PM 37.9792 -77.0250 36° Northeast 426 490 25,000  Level Washington Center
05:22PM 38.0761 -76.9369 36° Northeast 426 490 25,000  Level Washington Center
05:23PM 38.1708 -76.8464 37° Northeast 421 484 25,000  Level Washington Center
05:24PM 38.2678 -76.7553 36° Northeast 421 484 25,000  Level Washington Center
05:25PM 38.3750 -76.6564 36° Northeast 426 490 25,000  Level Washington Center
05:26PM 38.4694 -76.5675 36° Northeast 426 490 25,000  Level Washington Center
05:27PM 38.5661 -76.4758 37° Northeast 426 490 25,000  Level Washington Center
05:28PM 38.6628 -76.3839 37° Northeast 426 490 25,000  Level Washington Center
05:29PM 38.7569 -76.2972 36° Northeast 431 496 25,000  Level Washington Center
05:30PM 38.8514 -76.2075 36° Northeast 425 489 25,000  Level Washington Center
05:31PM 38.9331 -76.1147 41° Northeast 425 489 25,000 -60 Level Washington Center
05:32PM 39.0169 -76.0083 45° Northeast 425 489 24,900  Descending Washington Center
05:33PM 39.1025 -75.9019 44° Northeast 425 489 25,000  Climbing Washington Center
05:34PM 39.1883 -75.7950 44° Northeast 425 489 24,900  Descending Washington Center
05:35PM 39.2739 -75.6881 44° Northeast 425 489 25,000  Climbing Washington Center
05:36PM 39.3614 -75.5781 44° Northeast 425 489 25,000  Level Washington Center
05:38PM 39.5189 -75.3811 44° Northeast 423 487 25,000  Level New York Center
05:39PM 39.6044 -75.2706 45° Northeast 423 487 25,000  Level New York Center
05:40PM 39.6989 -75.1444 46° Northeast 428 493 25,000  Level New York Center
05:41PM 39.7864 -75.0311 45° Northeast 434 499 25,000  Level New York Center
05:42PM 39.8717 -74.9253 44° Northeast 434 499 25,000  Level New York Center
05:43PM 39.9392 -74.8372 45° Northeast 434 499 25,000  Level New York Center
05:44PM 40.0350 -74.7156 44° Northeast 434 499 25,000  Level New York Center
05:45PM 40.1222 -74.6039 44° Northeast 429 494 25,000  Level New York Center
05:46PM 40.2114 -74.4836 46° Northeast 429 494 25,000 -180 Level New York Center
05:47PM 40.3044 -74.3797 40° Northeast 423 487 24,700 -540 Descending New York Center
05:48PM 40.3989 -74.2811 38° Northeast 423 487 24,000 -540 Descending New York Center
05:49PM 40.4675 -74.1511 55° Northeast 423 487 23,700 -360 Descending New York Center
05:51PM 40.5806 -73.8583 63° Northeast 429 494 23,000 -240 Descending Boston Center
05:52PM 40.6342 -73.7200 63° Northeast 423 487 23,000  Level Boston Center
05:53PM 40.6794 -73.5867 66° East 423 487 23,000  Level Boston Center
05:54PM 40.7328 -73.4508 63° Northeast 423 487 23,000  Level Boston Center
05:55PM 40.7903 -73.3200 60° Northeast 418 481 23,000 -180 Level Boston Center
05:56PM 40.8703 -73.2142 45° Northeast 401 461 22,700 -720 Descending Boston Center
05:57PM 40.9561 -73.1133 42° Northeast 401 461 21,600 -1,140 Descending Boston Center
05:58PM 41.0483 -73.0264 35° Northeast 401 461 20,500 -1,140 Descending Boston Center
05:59PM 41.1425 -72.9472 32° Northeast 401 461 19,400 -780 Descending Boston Center
06:00PM 41.2367 -72.8733 31° Northeast 401 461 19,000 -780 Descending Boston Center
06:01PM 41.3411 -72.7939 30° Northeast 396 456 17,900 -1,380 Descending Boston Center
06:02PM 41.4247 -72.7336 28° Northeast 386 444 16,300 -1,500 Descending Boston Center
06:03PM 41.5311 -72.6786 21° North 368 423 15,000 -660 Descending Boston Center
06:04PM 41.6167 -72.6344 21° North 368 423 15,000 -240 Level Boston Center
06:05PM 41.7125 -72.5736 25° Northeast 366 421 14,600 -780 Descending Boston Center
06:06PM 41.7772 -72.4736 49° Northeast 357 411 13,500 -1,320 Descending Boston Center
06:07PM 41.8481 -72.3564 51° Northeast 370 426 12,000 -1,320 Descending Boston Center
06:08PM 41.9189 -72.2728 41° Northeast 364 419 10,900 -1,260 Descending Boston Center
06:09PM 42.0208 -72.1467 43° Northeast 313 360 9,000 -1,380 Descending Boston Center
06:10PM 42.0519 -72.1044 45° Northeast 318 366 8,200 -1,440 Descending Boston Center
06:11PM 42.1100 -72.0231 46° Northeast 290 334 6,800 -1,260 Descending Boston Center
06:12PM 42.1639 -71.9667 38° Northeast 271 312 5,800 -900 Descending Boston Center
06:13PM 42.2200 -71.9019 40° Northeast 257 296 5,000 -420 Descending Boston Center
06:14PM 42.2778 -71.8339 41° Northeast 257 296 5,000  Level Boston Center
06:15PM 42.3256 -71.7831 38° Northeast 251 289 5,000 -300 Level Boston Center
06:16PM 42.3814 -71.7150 42° Northeast 251 289 4,500 -900 Descending Boston Center
06:17PM 42.4333 -71.6000 59° Northeast 248 285 3,000 -1,080 Descending KA90
06:18PM 42.4667 -71.5333 56° Northeast 240 276 2,100 -540 Descending KA90
06:19PM 42.5000 -71.4667 56° Northeast 208 239 2,000 -300 Descending KA90
06:20PM 42.4833 -71.4000 109° East 174 200 1,600 -600 Descending KA90
06:21PM 42.4833 -71.3500 90° East 134 154 800 -540 Descending KA90
06:23PM 42.4694 -71.2719 104° East 131 151 300 -300 Descending Boston Center
06:26PM 42.4667 -71.2833 66° East  Level FlightAware Approximate
06:33PM 42.4699 -71.2890 66° East  Level Estimated
06:34PM 42.4667 -71.2833 66° East  Level FlightAware Approximate
06:35PM 42.4699 -71.2890 66° East  Level Estimated
06:36PM 42.4667 -71.2833 66° East  Level FlightAware Approximate
06:37PM 42.4699 -71.2890 66° East  Level Estimated